createdAt,value
2018-01-24T00:01:10.738Z,100879.30
2018-01-24T00:03:38.301Z,100885.47
2018-01-24T00:06:06.241Z,100881.55
2018-01-24T00:08:33.814Z,100881.84
2018-01-24T00:11:01.373Z,100890.08
2018-01-24T00:13:29.001Z,100886.66
2018-01-24T00:15:56.557Z,100894.11
2018-01-24T00:18:24.122Z,100898.88
2018-01-24T00:20:51.715Z,100894.06
2018-01-24T00:23:20.162Z,100892.25
2018-01-24T00:25:47.692Z,100884.56
2018-01-24T00:28:15.236Z,100892.84
2018-01-24T00:30:42.815Z,100899.87
2018-01-24T00:33:10.413Z,100902.71
2018-01-24T00:35:38.205Z,100903.99
2018-01-24T00:38:05.789Z,100898.25
2018-01-24T00:40:33.453Z,100899.62
2018-01-24T00:43:01.052Z,100894.46
2018-01-24T00:45:28.612Z,100885.97
2018-01-24T00:47:56.176Z,100889.06
2018-01-24T00:50:23.729Z,100895.59
2018-01-24T00:52:51.324Z,100894.46
2018-01-24T00:55:18.851Z,100904.53
2018-01-24T00:57:46.371Z,100901.09
2018-01-24T01:00:13.920Z,100900.27
2018-01-24T01:02:41.440Z,100901.48
2018-01-24T01:05:08.987Z,100903.59
2018-01-24T01:07:36.652Z,100901.64
2018-01-24T01:10:04.272Z,100898.45
2018-01-24T01:12:31.838Z,100893.84
2018-01-24T01:14:59.403Z,100901.14
2018-01-24T01:17:26.974Z,100901.58
2018-01-24T01:19:54.595Z,100904.83
2018-01-24T01:22:22.149Z,100905.46
2018-01-24T01:24:49.722Z,100910.07
2018-01-24T01:27:17.544Z,100914.20
2018-01-24T01:29:45.134Z,100914.31
2018-01-24T01:32:12.715Z,100911.45
2018-01-24T01:34:40.287Z,100911.51
2018-01-24T01:37:07.864Z,100912.91
2018-01-24T01:39:35.443Z,100914.14
2018-01-24T01:42:03.189Z,100916.50
2018-01-24T01:44:30.765Z,100909.73
2018-01-24T01:46:58.431Z,100912.67
2018-01-24T01:49:26.013Z,100903.14
2018-01-24T01:51:53.628Z,100912.61
2018-01-24T01:54:21.194Z,100912.22
2018-01-24T01:56:49.097Z,100913.71
2018-01-24T01:59:16.626Z,100912.53
2018-01-24T02:01:44.185Z,100905.66
2018-01-24T02:04:11.759Z,100913.01
2018-01-24T02:06:39.365Z,100911.23
2018-01-24T02:09:06.920Z,100913.33
2018-01-24T02:11:34.438Z,100911.72
2018-01-24T02:14:02.016Z,100915.89
2018-01-24T02:16:29.545Z,100913.25
2018-01-24T02:18:57.180Z,100917.50
2018-01-24T02:21:24.732Z,100914.76
2018-01-24T02:23:52.300Z,100917.12
2018-01-24T02:26:19.838Z,100918.30
2018-01-24T02:28:47.476Z,100909.20
2018-01-24T02:31:15.035Z,100901.16
2018-01-24T02:33:42.589Z,100906.36
2018-01-24T02:36:10.172Z,100908.06
2018-01-24T02:38:49.752Z,100916.16
2018-01-24T02:41:17.334Z,100912.41
2018-01-24T02:43:44.896Z,100918.31
2018-01-24T02:46:12.487Z,100912.52
2018-01-24T02:48:40.040Z,100908.63
2018-01-24T02:51:07.659Z,100911.78
2018-01-24T02:53:35.197Z,100913.83
2018-01-24T02:56:02.869Z,100920.63
2018-01-24T02:58:30.451Z,100921.34
2018-01-24T03:00:58.040Z,100917.39
2018-01-24T03:03:25.592Z,100922.30
2018-01-24T03:05:53.225Z,100915.56
2018-01-24T03:08:20.813Z,100912.93
2018-01-24T03:10:48.504Z,100912.25
2018-01-24T03:13:16.089Z,100909.03
2018-01-24T03:15:43.680Z,100913.27
2018-01-24T03:18:11.259Z,100924.08
2018-01-24T03:20:38.808Z,100925.44
2018-01-24T03:23:06.360Z,100918.97
2018-01-24T03:25:33.936Z,100917.16
2018-01-24T03:28:01.520Z,100918.59
2018-01-24T03:30:29.080Z,100910.77
2018-01-24T03:32:56.765Z,100911.06
2018-01-24T03:35:24.340Z,100904.86
2018-01-24T03:37:51.955Z,100909.22
2018-01-24T03:40:19.514Z,100905.97
2018-01-24T03:42:47.043Z,100909.13
2018-01-24T03:45:14.619Z,100903.62
2018-01-24T03:47:42.158Z,100902.69
2018-01-24T03:50:09.708Z,100896.24
2018-01-24T03:52:37.292Z,100898.25
2018-01-24T03:55:04.853Z,100895.38
2018-01-24T03:57:32.493Z,100897.45
2018-01-24T04:00:00.064Z,100902.39
2018-01-24T04:02:27.651Z,100903.39
2018-01-24T04:04:55.171Z,100900.88
2018-01-24T04:07:22.747Z,100899.78
2018-01-24T04:09:50.464Z,100898.37
2018-01-24T04:12:18.136Z,100901.20
2018-01-24T04:14:45.691Z,100902.91
2018-01-24T04:17:13.263Z,100892.97
2018-01-24T04:19:40.782Z,100891.86
2018-01-24T04:22:08.347Z,100905.52
2018-01-24T04:24:35.884Z,100894.47
2018-01-24T04:27:03.795Z,100888.20
2018-01-24T04:29:31.347Z,100894.23
2018-01-24T04:31:58.875Z,100891.53
2018-01-24T04:34:26.452Z,100891.68
2018-01-24T04:36:54.040Z,100876.03
2018-01-24T04:39:21.590Z,100878.58
2018-01-24T04:41:49.144Z,100871.30
2018-01-24T04:44:16.721Z,100868.34
2018-01-24T04:46:44.272Z,100870.40
2018-01-24T04:49:11.833Z,100859.16
2018-01-24T04:51:39.418Z,100867.17
2018-01-24T04:54:07.028Z,100857.26
2018-01-24T04:56:34.627Z,100856.11
2018-01-24T04:59:02.213Z,100852.43
2018-01-24T05:01:29.776Z,100847.89
2018-01-24T05:03:57.695Z,100840.97
2018-01-24T05:06:25.245Z,100847.37
2018-01-24T05:08:52.788Z,100847.42
2018-01-24T05:11:20.377Z,100842.70
2018-01-24T05:13:47.934Z,100841.78
2018-01-24T05:16:15.504Z,100842.45
2018-01-24T05:18:43.123Z,100835.19
2018-01-24T05:21:11.263Z,100839.84
2018-01-24T05:23:38.859Z,100839.33
2018-01-24T05:26:06.498Z,100848.36
2018-01-24T05:28:34.037Z,100841.86
2018-01-24T05:31:01.593Z,100840.49
2018-01-24T05:33:29.148Z,100839.82
2018-01-24T05:35:56.737Z,100834.98
2018-01-24T05:38:24.293Z,100834.71
2018-01-24T05:40:51.868Z,100833.48
2018-01-24T05:43:19.395Z,100825.84
2018-01-24T05:45:46.924Z,100818.71
2018-01-24T05:48:14.842Z,100830.83
2018-01-24T05:50:42.362Z,100826.84
2018-01-24T05:53:10.079Z,100825.28
2018-01-24T05:55:37.649Z,100822.27
2018-01-24T05:58:05.192Z,100814.55
2018-01-24T06:00:32.775Z,100823.43
2018-01-24T06:03:00.820Z,100823.77
2018-01-24T06:05:28.456Z,100825.08
2018-01-24T06:07:56.008Z,100824.31
2018-01-24T06:10:23.560Z,100827.44
2018-01-24T06:12:51.141Z,100825.71
2018-01-24T06:15:18.783Z,100829.13
2018-01-24T06:17:46.349Z,100817.19
2018-01-24T06:20:13.919Z,100806.20
2018-01-24T06:22:41.440Z,100807.82
2018-01-24T06:25:09.048Z,100805.66
2018-01-24T06:27:36.588Z,100805.02
2018-01-24T06:30:04.128Z,100792.91
2018-01-24T06:32:31.712Z,100788.06
2018-01-24T06:34:59.613Z,100791.92
2018-01-24T06:37:27.184Z,100775.11
2018-01-24T06:39:54.725Z,100779.51
2018-01-24T06:42:22.314Z,100780.34
2018-01-24T06:44:50.033Z,100767.64
2018-01-24T06:47:17.572Z,100775.58
2018-01-24T06:49:45.172Z,100768.55
2018-01-24T06:52:12.760Z,100767.38
2018-01-24T06:54:40.321Z,100765.16
2018-01-24T06:57:07.900Z,100764.78
2018-01-24T06:59:35.482Z,100761.42
2018-01-24T07:02:03.037Z,100762.12
2018-01-24T07:04:30.665Z,100772.29
2018-01-24T07:06:58.226Z,100765.50
2018-01-24T07:09:25.840Z,100762.58
2018-01-24T07:11:53.466Z,100760.19
2018-01-24T07:14:40.982Z,100769.63
2018-01-24T07:17:08.556Z,100777.99
2018-01-24T07:19:36.132Z,100769.61
2018-01-24T07:22:03.708Z,100762.59
2018-01-24T07:24:31.268Z,100771.33
2018-01-24T07:26:58.854Z,100764.02
2018-01-24T07:29:26.375Z,100773.20
2018-01-24T07:31:53.911Z,100773.70
2018-01-24T07:34:21.641Z,100771.75
2018-01-24T07:36:49.264Z,100771.34
2018-01-24T07:39:16.825Z,100773.20
2018-01-24T07:41:45.064Z,100765.96
2018-01-24T07:44:12.674Z,100757.70
2018-01-24T07:46:40.219Z,100762.06
2018-01-24T07:49:07.789Z,100753.55
2018-01-24T07:51:35.403Z,100742.80
2018-01-24T07:54:03.023Z,100738.09
2018-01-24T07:56:30.598Z,100738.39
2018-01-24T07:58:58.434Z,100734.61
2018-01-24T08:01:25.998Z,100726.84
2018-01-24T08:03:53.709Z,100722.47
2018-01-24T08:06:21.336Z,100724.50
2018-01-24T08:08:48.866Z,100721.76
2018-01-24T08:11:16.482Z,100724.30
2018-01-24T08:13:44.057Z,100714.58
2018-01-24T08:16:11.609Z,100723.81
2018-01-24T08:18:39.156Z,100714.16
2018-01-24T08:21:06.743Z,100717.08
2018-01-24T08:23:34.296Z,100711.19
2018-01-24T08:26:02.647Z,100717.16
2018-01-24T08:28:30.188Z,100713.08
2018-01-24T08:30:57.795Z,100720.41
2018-01-24T08:33:25.357Z,100723.69
2018-01-24T08:35:52.960Z,100717.39
2018-01-24T08:38:20.640Z,100714.59
2018-01-24T08:40:48.272Z,100703.29
2018-01-24T08:43:15.778Z,100702.73
2018-01-24T08:45:43.357Z,100703.77
2018-01-24T08:48:10.883Z,100703.72
2018-01-24T08:50:38.408Z,100695.80
2018-01-24T08:53:05.951Z,100691.37
2018-01-24T08:55:33.487Z,100693.30
2018-01-24T08:58:01.230Z,100679.03
2018-01-24T09:00:28.869Z,100682.88
2018-01-24T09:02:56.728Z,100678.58
2018-01-24T09:05:24.280Z,100668.34
2018-01-24T09:07:51.826Z,100663.09
2018-01-24T09:10:19.747Z,100668.91
2018-01-24T09:12:47.298Z,100664.83
2018-01-24T09:15:14.810Z,100654.73
2018-01-24T09:17:42.833Z,100655.34
2018-01-24T09:20:10.403Z,100641.39
2018-01-24T09:22:37.912Z,100631.17
2018-01-24T09:25:05.456Z,100620.03
2018-01-24T09:27:32.978Z,100628.05
2018-01-24T09:30:00.924Z,100623.39
2018-01-24T09:32:28.459Z,100631.84
2018-01-24T09:34:56.007Z,100625.81
2018-01-24T09:37:24.616Z,100625.09
2018-01-24T09:39:52.273Z,100616.87
2018-01-24T09:42:19.841Z,100623.77
2018-01-24T09:44:47.398Z,100630.32
2018-01-24T09:47:14.950Z,100611.30
2018-01-24T09:49:42.482Z,100616.97
2018-01-24T09:52:10.073Z,100613.24
2018-01-24T09:54:37.628Z,100611.93
2018-01-24T09:57:05.170Z,100619.52
2018-01-24T09:59:32.767Z,100610.92
2018-01-24T10:02:00.288Z,100618.03
2018-01-24T10:04:27.842Z,100617.66
2018-01-24T10:06:55.354Z,100611.00
2018-01-24T10:09:22.973Z,100607.95
2018-01-24T10:11:50.577Z,100601.11
2018-01-24T10:14:18.441Z,100604.55
2018-01-24T10:16:45.970Z,100600.52
2018-01-24T10:19:13.867Z,100589.25
2018-01-24T10:21:41.411Z,100592.42
2018-01-24T10:24:08.945Z,100581.67
2018-01-24T10:26:36.485Z,100587.73
2018-01-24T10:29:04.234Z,100586.55
2018-01-24T10:31:31.809Z,100575.09
2018-01-24T10:33:59.567Z,100572.52
2018-01-24T10:36:27.183Z,100573.47
2018-01-24T10:38:54.770Z,100575.52
2018-01-24T10:41:22.356Z,100567.50
2018-01-24T10:43:49.939Z,100567.77
2018-01-24T10:46:17.545Z,100561.44
2018-01-24T10:48:45.092Z,100564.05
2018-01-24T10:51:12.620Z,100546.66
2018-01-24T10:53:40.172Z,100554.08
2018-01-24T10:56:07.720Z,100555.35
2018-01-24T10:58:35.275Z,100554.51
2018-01-24T11:01:02.803Z,100560.25
2018-01-24T11:03:30.330Z,100543.50
2018-01-24T11:05:57.903Z,100539.66
2018-01-24T11:08:25.419Z,100536.78
2018-01-24T11:10:52.956Z,100542.36
2018-01-24T11:13:20.584Z,100530.66
2018-01-24T11:15:48.175Z,100529.16
2018-01-24T11:18:15.745Z,100517.69
2018-01-24T11:20:43.369Z,100514.95
2018-01-24T11:23:11.289Z,100510.41
2018-01-24T11:25:38.844Z,100499.66
2018-01-24T11:28:06.396Z,100495.07
2018-01-24T11:30:33.962Z,100492.19
2018-01-24T11:33:01.537Z,100493.61
2018-01-24T11:35:29.115Z,100481.23
2018-01-24T11:37:56.975Z,100475.19
2018-01-24T11:40:24.537Z,100476.52
2018-01-24T11:42:52.085Z,100470.03
2018-01-24T11:45:19.643Z,100474.71
2018-01-24T11:47:47.163Z,100475.95
2018-01-24T11:50:15.092Z,100463.86
2018-01-24T11:52:42.669Z,100457.30
2018-01-24T11:55:10.252Z,100452.83
2018-01-24T11:57:37.796Z,100461.97
2018-01-24T12:00:05.342Z,100448.95
2018-01-24T12:02:32.884Z,100446.80
2018-01-24T12:05:00.783Z,100448.14
2018-01-24T12:07:28.352Z,100450.05
2018-01-24T12:09:55.875Z,100443.19
2018-01-24T12:12:23.505Z,100434.44
2018-01-24T12:14:51.400Z,100432.44
2018-01-24T12:17:19.061Z,100410.05
2018-01-24T12:19:46.600Z,100417.61
2018-01-24T12:22:14.168Z,100412.16
2018-01-24T12:24:41.735Z,100399.62
2018-01-24T12:27:09.342Z,100412.41
2018-01-24T12:29:36.864Z,100405.84
2018-01-24T12:32:04.553Z,100393.02
2018-01-24T12:34:32.491Z,100394.19
2018-01-24T12:37:00.030Z,100386.23
2018-01-24T12:39:27.620Z,100387.27
2018-01-24T12:41:55.190Z,100368.84
2018-01-24T12:44:22.708Z,100354.50
2018-01-24T12:46:50.648Z,100353.26
2018-01-24T12:49:18.223Z,100346.45
2018-01-24T12:51:45.868Z,100322.34
2018-01-24T12:54:13.537Z,100314.97
2018-01-24T12:56:41.499Z,100320.75
2018-01-24T12:59:09.028Z,100310.58
2018-01-24T13:01:36.649Z,100305.19
2018-01-24T13:04:04.163Z,100308.30
2018-01-24T13:06:31.845Z,100305.64
2018-01-24T13:08:59.632Z,100292.27
2018-01-24T13:11:27.540Z,100295.94
2018-01-24T13:13:55.199Z,100304.09
2018-01-24T13:16:22.709Z,100309.39
2018-01-24T13:18:50.308Z,100308.80
2018-01-24T13:21:17.856Z,100314.75
2018-01-24T13:23:45.390Z,100309.26
2018-01-24T13:26:13.257Z,100312.18
2018-01-24T13:28:40.774Z,100311.80
2018-01-24T13:31:08.305Z,100311.08
2018-01-24T13:33:36.135Z,100310.85
2018-01-24T13:36:03.680Z,100301.13
2018-01-24T13:38:31.225Z,100301.52
2018-01-24T13:40:58.794Z,100281.37
2018-01-24T13:43:26.344Z,100278.66
2018-01-24T13:45:53.884Z,100279.39
2018-01-24T13:48:21.416Z,100281.16
2018-01-24T13:50:49.122Z,100268.22
2018-01-24T13:53:16.667Z,100271.63
2018-01-24T13:55:44.233Z,100245.60
2018-01-24T13:58:11.739Z,100252.89
2018-01-24T14:00:39.959Z,100251.20
2018-01-24T14:03:07.500Z,100247.92
2018-01-24T14:05:35.093Z,100242.12
2018-01-24T14:08:02.653Z,100240.31
2018-01-24T14:10:30.191Z,100247.89
2018-01-24T14:12:57.751Z,100239.38
2018-01-24T14:15:25.423Z,100242.83
2018-01-24T14:17:52.988Z,100236.72
2018-01-24T14:20:20.585Z,100257.06
2018-01-24T14:22:48.176Z,100238.77
2018-01-24T14:25:15.691Z,100230.84
2018-01-24T14:27:43.223Z,100229.66
2018-01-24T14:30:10.800Z,100228.88
2018-01-24T14:32:38.647Z,100223.48
2018-01-24T14:35:06.167Z,100215.80
2018-01-24T14:37:33.694Z,100217.55
2018-01-24T14:40:01.250Z,100214.95
2018-01-24T14:42:28.770Z,100222.23
2018-01-24T14:44:56.317Z,100211.72
2018-01-24T14:47:24.149Z,100213.63
2018-01-24T14:49:51.706Z,100217.21
2018-01-24T14:52:19.302Z,100223.11
2018-01-24T14:54:46.840Z,100214.02
2018-01-24T14:57:14.380Z,100210.74
2018-01-24T14:59:42.035Z,100212.12
2018-01-24T15:02:09.562Z,100207.52
2018-01-24T15:04:37.099Z,100206.58
2018-01-24T15:07:04.664Z,100209.63
2018-01-24T15:09:32.208Z,100215.97
2018-01-24T15:11:59.848Z,100214.89
2018-01-24T15:14:27.406Z,100214.41
2018-01-24T15:16:54.924Z,100213.72
2018-01-24T15:19:22.521Z,100208.73
2018-01-24T15:21:50.074Z,100217.01
2018-01-24T15:24:18.038Z,100196.98
2018-01-24T15:26:45.593Z,100201.45
2018-01-24T15:29:13.168Z,100165.20
2018-01-24T15:31:40.882Z,100182.11
2018-01-24T15:34:08.436Z,100172.11
2018-01-24T15:36:36.021Z,100175.59
2018-01-24T15:39:03.606Z,100164.73
2018-01-24T15:41:31.478Z,100171.37
2018-01-24T15:43:59.026Z,100168.48
2018-01-24T15:46:26.556Z,100162.00
2018-01-24T15:48:54.151Z,100170.75
2018-01-24T15:51:21.720Z,100168.42
2018-01-24T15:53:49.241Z,100163.34
2018-01-24T15:56:17.541Z,100156.36
2018-01-24T15:58:45.092Z,100163.93
2018-01-24T16:01:12.772Z,100153.78
2018-01-24T16:03:40.329Z,100149.20
2018-01-24T16:06:07.868Z,100157.78
2018-01-24T16:08:35.412Z,100154.19
2018-01-24T16:11:02.968Z,100142.01
2018-01-24T16:13:30.488Z,100136.44
2018-01-24T16:15:58.350Z,100146.70
2018-01-24T16:18:25.873Z,100138.42
2018-01-24T16:20:53.427Z,100136.39
2018-01-24T16:23:21.017Z,100135.13
2018-01-24T16:25:48.557Z,100141.08
2018-01-24T16:28:16.103Z,100131.78
2018-01-24T16:30:43.658Z,100140.62
2018-01-24T16:33:11.205Z,100141.87
2018-01-24T16:35:38.820Z,100134.52
2018-01-24T16:38:06.336Z,100123.97
2018-01-24T16:40:33.870Z,100133.44
2018-01-24T16:43:01.446Z,100126.47
2018-01-24T16:45:28.973Z,100137.98
2018-01-24T16:47:56.534Z,100134.45
2018-01-24T16:50:24.085Z,100135.55
2018-01-24T16:52:51.605Z,100130.63
2018-01-24T16:55:19.130Z,100139.72
2018-01-24T16:57:46.687Z,100134.77
2018-01-24T17:00:14.282Z,100123.13
2018-01-24T17:02:41.805Z,100142.91
2018-01-24T17:05:09.376Z,100127.80
2018-01-24T17:07:36.903Z,100123.97
2018-01-24T17:10:04.422Z,100126.56
2018-01-24T17:12:31.959Z,100121.63
2018-01-24T17:14:59.533Z,100103.88
2018-01-24T17:17:27.125Z,100127.83
2018-01-24T17:19:54.691Z,100138.20
2018-01-24T17:22:22.219Z,100113.58
2018-01-24T17:24:50.086Z,100126.00
2018-01-24T17:27:17.596Z,100112.16
2018-01-24T17:29:45.108Z,100104.56
2018-01-24T17:32:12.666Z,100115.85
2018-01-24T17:34:40.277Z,100115.59
2018-01-24T17:37:09.099Z,100115.20
2018-01-24T17:39:36.632Z,100116.15
2018-01-24T17:42:04.216Z,100114.98
2018-01-24T17:44:31.784Z,100098.41
2018-01-24T17:46:59.297Z,100097.07
2018-01-24T17:49:26.995Z,100106.45
2018-01-24T17:51:54.502Z,100105.98
2018-01-24T17:54:22.049Z,100086.16
2018-01-24T17:56:49.622Z,100093.08
2018-01-24T17:59:17.147Z,100087.60
2018-01-24T18:01:44.691Z,100089.48
2018-01-24T18:04:12.213Z,100086.43
2018-01-24T18:06:40.067Z,100086.98
2018-01-24T18:09:10.560Z,100077.35
2018-01-24T18:11:38.507Z,100063.14
2018-01-24T18:14:07.199Z,100080.49
2018-01-24T18:16:34.896Z,100060.78
2018-01-24T18:19:03.045Z,100068.76
2018-01-24T18:21:30.607Z,100079.78
2018-01-24T18:23:58.277Z,100072.03
2018-01-24T18:26:25.835Z,100078.45
2018-01-24T18:28:53.372Z,100085.59
2018-01-24T18:31:21.348Z,100073.53
2018-01-24T18:33:48.907Z,100083.16
2018-01-24T18:36:17.720Z,100066.16
2018-01-24T18:38:47.514Z,100070.54
2018-01-24T18:41:18.142Z,100070.64
2018-01-24T18:43:47.131Z,100075.73
2018-01-24T18:46:14.815Z,100068.76
2018-01-24T18:48:44.936Z,100076.58
2018-01-24T18:51:12.504Z,100082.61
2018-01-24T18:53:40.222Z,100068.76
2018-01-24T18:56:07.795Z,100067.20
2018-01-24T18:58:35.363Z,100072.30
2018-01-24T19:01:02.892Z,100061.56
2018-01-24T19:03:30.469Z,100057.24
2018-01-24T19:05:58.074Z,100057.41
2018-01-24T19:08:25.640Z,100062.56
2018-01-24T19:10:53.537Z,100075.25
2018-01-24T19:13:21.076Z,100068.53
2018-01-24T19:15:48.687Z,100070.21
2018-01-24T19:18:16.262Z,100065.61
2018-01-24T19:20:44.196Z,100053.03
2018-01-24T19:23:11.800Z,100060.77
2018-01-24T19:25:39.353Z,100064.53
2018-01-24T19:28:07.257Z,100062.05
2018-01-24T19:30:34.816Z,100077.35
2018-01-24T19:33:02.743Z,100067.03
2018-01-24T19:35:30.274Z,100061.49
2018-01-24T19:37:57.792Z,100060.39
2018-01-24T19:40:25.683Z,100052.09
2018-01-24T19:42:53.316Z,100041.16
2018-01-24T19:45:20.862Z,100050.30
2018-01-24T19:47:48.439Z,100046.93
2018-01-24T19:50:16.056Z,100039.12
2018-01-24T19:52:43.626Z,100048.98
2018-01-24T19:55:11.207Z,100054.52
2018-01-24T19:57:38.837Z,100042.72
2018-01-24T20:00:06.436Z,100049.14
2018-01-24T20:02:34.368Z,100030.20
2018-01-24T20:05:01.922Z,100054.06
2018-01-24T20:07:29.446Z,100033.90
2018-01-24T20:09:57.048Z,100053.61
2018-01-24T20:12:24.610Z,100038.17
2018-01-24T20:14:52.215Z,100043.72
2018-01-24T20:17:19.879Z,100058.52
2018-01-24T20:19:47.475Z,100040.05
2018-01-24T20:22:15.038Z,100029.42
2018-01-24T20:24:42.665Z,100030.27
2018-01-24T20:27:10.416Z,100034.67
2018-01-24T20:29:38.250Z,100032.80
2018-01-24T20:32:05.856Z,100028.42
2018-01-24T20:34:33.615Z,100032.41
2018-01-24T20:37:01.212Z,100038.50
2018-01-24T20:39:28.766Z,100040.45
2018-01-24T20:41:56.419Z,100049.91
2018-01-24T20:44:23.990Z,100047.09
2018-01-24T20:46:51.652Z,100028.97
2018-01-24T20:49:19.231Z,100035.39
2018-01-24T20:51:46.833Z,100037.23
2018-01-24T20:54:14.391Z,100041.78
2018-01-24T20:56:41.971Z,100033.66
2018-01-24T20:59:09.494Z,100045.70
2018-01-24T21:01:37.036Z,100042.80
2018-01-24T21:04:05.598Z,100056.31
2018-01-24T21:06:33.198Z,100066.27
2018-01-24T21:09:00.722Z,100048.62
2018-01-24T21:11:28.259Z,100068.14
2018-01-24T21:13:55.866Z,100048.67
2018-01-24T21:16:23.417Z,100074.12
2018-01-24T21:18:50.944Z,100061.28
2018-01-24T21:21:18.488Z,100080.95
2018-01-24T21:23:46.017Z,100072.30
2018-01-24T21:26:13.584Z,100073.22
2018-01-24T21:28:48.103Z,100088.55
2018-01-24T21:31:27.506Z,100118.48
2018-01-24T21:34:07.795Z,100143.48
2018-01-24T21:36:35.454Z,100137.09
2018-01-24T21:39:03.006Z,100148.81
2018-01-24T21:41:30.540Z,100154.53
2018-01-24T21:43:58.438Z,100151.93
2018-01-24T21:46:25.988Z,100172.53
2018-01-24T21:48:53.506Z,100175.86
2018-01-24T21:51:21.358Z,100201.23
2018-01-24T21:53:48.896Z,100190.25
2018-01-24T21:56:16.412Z,100180.61
2018-01-24T21:58:44.048Z,100178.07
2018-01-24T22:01:11.577Z,100188.36
2018-01-24T22:03:39.156Z,100183.34
2018-01-24T22:06:06.773Z,100180.97
2018-01-24T22:08:34.316Z,100188.45
2018-01-24T22:11:01.888Z,100202.53
2018-01-24T22:13:29.439Z,100202.31
2018-01-24T22:15:56.991Z,100205.11
2018-01-24T22:18:24.536Z,100207.80
2018-01-24T22:20:52.155Z,100212.11
2018-01-24T22:23:19.701Z,100218.72
2018-01-24T22:25:47.211Z,100211.11
2018-01-24T22:28:14.770Z,100186.31
2018-01-24T22:30:42.311Z,100205.00
2018-01-24T22:33:09.847Z,100202.66
2018-01-24T22:35:37.360Z,100195.55
2018-01-24T22:38:04.924Z,100196.41
2018-01-24T22:40:32.432Z,100189.39
2018-01-24T22:42:59.959Z,100190.65
2018-01-24T22:45:27.549Z,100195.02
2018-01-24T22:47:55.097Z,100197.07
2018-01-24T22:50:22.654Z,100193.98
2018-01-24T22:52:50.342Z,100191.16
2018-01-24T22:55:17.903Z,100201.16
2018-01-24T22:57:45.444Z,100196.16
2018-01-24T23:00:25.051Z,100210.02
2018-01-24T23:02:52.572Z,100204.69
2018-01-24T23:05:20.117Z,100207.34
2018-01-24T23:07:47.675Z,100220.50
2018-01-24T23:10:15.239Z,100222.63
2018-01-24T23:12:42.750Z,100221.64
2018-01-24T23:15:10.370Z,100221.62
2018-01-24T23:17:37.906Z,100229.05
2018-01-24T23:20:05.463Z,100222.83
2018-01-24T23:22:33.010Z,100221.50
2018-01-24T23:25:00.601Z,100221.06
2018-01-24T23:27:28.232Z,100231.69
2018-01-24T23:29:55.801Z,100233.45
2018-01-24T23:32:23.332Z,100215.88
2018-01-24T23:34:50.884Z,100228.69
2018-01-24T23:37:18.417Z,100237.48
2018-01-24T23:39:45.988Z,100242.30
2018-01-24T23:42:13.501Z,100235.35
2018-01-24T23:44:41.055Z,100221.28
2018-01-24T23:47:08.610Z,100233.78
2018-01-24T23:49:36.176Z,100246.00
2018-01-24T23:52:03.707Z,100236.09
2018-01-24T23:54:31.253Z,100231.14
2018-01-24T23:56:58.853Z,100232.59
2018-01-24T23:59:26.376Z,100232.76
